Time;durP1;ratioP1;P1;durP2;ratioP2;P2;SDS_P1;SDS_P2;PMS_P1;PMS_P2;Temp;Humidity;BMP_temperature;BMP_pressure;BME280_temperature;BME280_humidity;BME280_pressure;Samples;Min_cycle;Max_cycle;Signal;HPM_P1;HPM_P2
2023/10/09 00:01:13;;;;;;;1.43;1.33;;;14.20;99.90;;;;;;5065871;28;20204;-66
2023/10/09 00:03:42;;;;;;;5.23;2.23;;;14.10;99.90;;;;;;5065410;28;20199;-66
2023/10/09 00:06:10;;;;;;;3.27;1.70;;;14.10;99.90;;;;;;5065281;28;20203;-65
2023/10/09 00:08:39;;;;;;;3.07;1.93;;;14.10;99.90;;;;;;5065374;28;20235;-66
2023/10/09 00:11:16;;;;;;;3.37;1.60;;;14.00;99.90;;;;;;5065675;28;20203;-65
2023/10/09 00:13:50;;;;;;;2.30;1.80;;;14.00;99.90;;;;;;5064976;28;20648;-65
2023/10/09 00:16:22;;;;;;;2.80;1.80;;;14.00;99.90;;;;;;5065658;28;20199;-65
2023/10/09 00:18:53;;;;;;;1.77;1.67;;;14.00;99.90;;;;;;5065262;28;20295;-65
2023/10/09 00:21:22;;;;;;;2.80;1.90;;;13.90;99.90;;;;;;5064971;28;20556;-66
2023/10/09 00:23:54;;;;;;;1.70;1.60;;;13.90;99.90;;;;;;5065248;28;20282;-66
2023/10/09 00:26:22;;;;;;;2.63;1.67;;;13.90;99.90;;;;;;5065044;28;20196;-65
2023/10/09 00:28:51;;;;;;;2.10;1.80;;;13.90;99.90;;;;;;5065370;28;20204;-66
2023/10/09 00:31:28;;;;;;;2.23;1.93;;;13.90;99.90;;;;;;5053516;28;20297;-65
2023/10/09 00:34:01;;;;;;;2.83;1.70;;;13.80;99.90;;;;;;5064012;28;20223;-65
2023/10/09 00:36:29;;;;;;;2.50;1.57;;;13.80;99.90;;;;;;5068229;28;20199;-66
2023/10/09 00:38:57;;;;;;;1.67;1.57;;;13.80;99.90;;;;;;5064686;28;20734;-65
2023/10/09 00:41:28;;;;;;;5.97;1.60;;;13.80;99.90;;;;;;5082680;28;20199;-66
2023/10/09 00:43:59;;;;;;;1.87;1.77;;;13.80;99.90;;;;;;5069863;28;20214;-66
2023/10/09 00:46:27;;;;;;;2.43;1.70;;;13.70;99.90;;;;;;5057341;28;20263;-66
2023/10/09 00:49:01;;;;;;;1.60;1.50;;;13.70;99.90;;;;;;5064584;28;20284;-65
2023/10/09 00:51:32;;;;;;;2.60;1.80;;;13.70;99.90;;;;;;5064686;28;20207;-65
2023/10/09 00:54:06;;;;;;;2.27;1.83;;;13.70;99.90;;;;;;5064563;28;20269;-66
2023/10/09 00:56:43;;;;;;;1.93;1.70;;;13.70;99.90;;;;;;5064373;28;20199;-65
2023/10/09 00:59:14;;;;;;;1.73;1.57;;;13.60;99.90;;;;;;5064656;28;20286;-65
2023/10/09 01:01:48;;;;;;;1.60;1.50;;;13.60;99.90;;;;;;5064507;28;20632;-65
2023/10/09 01:04:17;;;;;;;2.17;2.00;;;13.60;99.90;;;;;;5064011;28;20799;-65
2023/10/09 01:06:45;;;;;;;4.63;2.10;;;13.60;99.90;;;;;;5064899;28;20200;-65
2023/10/09 01:09:13;;;;;;;1.83;1.73;;;13.50;99.90;;;;;;5064360;28;20239;-66
2023/10/09 01:12:03;;;;;;;3.77;2.20;;;13.50;99.90;;;;;;5064957;28;20226;-66
2023/10/09 01:14:30;;;;;;;2.10;1.67;;;13.50;99.90;;;;;;5064797;28;20219;-65
2023/10/09 01:16:59;;;;;;;2.33;2.10;;;13.40;99.90;;;;;;5064466;28;20208;-65
2023/10/09 01:19:28;;;;;;;4.10;2.00;;;13.40;99.90;;;;;;5045961;28;20233;-65
2023/10/09 01:21:59;;;;;;;2.83;2.03;;;13.40;99.90;;;;;;5064608;28;20724;-65
2023/10/09 01:24:31;;;;;;;3.83;2.17;;;13.40;99.90;;;;;;5064496;28;20195;-65
2023/10/09 01:26:59;;;;;;;1.93;1.83;;;13.40;99.90;;;;;;5056202;28;20266;-65
2023/10/09 01:29:27;;;;;;;4.03;2.20;;;13.30;99.90;;;;;;5048892;28;20208;-65
2023/10/09 01:31:55;;;;;;;2.33;2.13;;;13.30;99.90;;;;;;5061314;28;20218;-66
2023/10/09 01:34:38;;;;;;;1.97;1.87;;;13.30;99.90;;;;;;5067820;28;20227;-65
2023/10/09 01:37:11;;;;;;;2.87;2.20;;;13.30;99.90;;;;;;5068624;28;20207;-65
2023/10/09 01:39:42;;;;;;;3.10;1.70;;;13.20;99.90;;;;;;5068439;28;20614;-66
2023/10/09 01:42:10;;;;;;;2.60;2.03;;;13.20;99.90;;;;;;5068338;28;20203;-66
2023/10/09 01:44:42;;;;;;;2.03;1.90;;;13.20;99.90;;;;;;5068376;28;20207;-65
2023/10/09 01:47:13;;;;;;;2.60;2.00;;;13.10;99.90;;;;;;5068168;28;20238;-65
2023/10/09 01:49:43;;;;;;;1.97;1.83;;;13.10;99.90;;;;;;5068460;28;20199;-66
2023/10/09 01:52:10;;;;;;;3.40;2.10;;;13.10;99.90;;;;;;5067989;28;20294;-65
2023/10/09 01:54:41;;;;;;;2.53;2.10;;;13.10;99.90;;;;;;5068305;28;20227;-65
2023/10/09 01:57:11;;;;;;;2.27;2.00;;;13.10;99.90;;;;;;5068109;28;20981;-65
2023/10/09 01:59:43;;;;;;;2.13;1.93;;;13.10;99.90;;;;;;5077362;28;20237;-65
2023/10/09 02:02:25;;;;;;;2.73;2.13;;;13.10;99.90;;;;;;5076231;28;20212;-65
2023/10/09 02:04:53;;;;;;;4.03;2.00;;;13.10;99.90;;;;;;5068394;28;20187;-66
2023/10/09 02:07:27;;;;;;;2.20;1.90;;;13.10;99.90;;;;;;5068445;28;20207;-65
2023/10/09 02:09:56;;;;;;;2.27;2.07;;;13.00;99.90;;;;;;5067680;28;20310;-65
2023/10/09 02:12:23;;;;;;;3.10;2.33;;;13.10;99.90;;;;;;5067922;28;20211;-65
2023/10/09 02:14:53;;;;;;;2.47;2.17;;;13.00;99.90;;;;;;5068100;28;20227;-65
2023/10/09 02:17:24;;;;;;;2.60;2.30;;;13.00;99.90;;;;;;5087898;28;20214;-65
2023/10/09 02:19:52;;;;;;;4.40;2.77;;;13.00;99.90;;;;;;5088120;28;20244;-65
2023/10/09 02:22:19;;;;;;;2.80;2.60;;;13.00;99.90;;;;;;5083416;28;20210;-66
2023/10/09 02:24:57;;;;;;;3.77;2.27;;;13.10;99.90;;;;;;5067538;28;20655;-65
2023/10/09 02:27:45;;;;;;;2.40;2.20;;;13.10;99.90;;;;;;5067866;28;20206;-64
2023/10/09 02:30:26;;;;;;;3.77;2.00;;;13.10;99.90;;;;;;5057609;28;20666;-64
2023/10/09 02:33:06;;;;;;;2.30;2.10;;;13.10;99.90;;;;;;5064203;28;20569;-64
2023/10/09 02:35:37;;;;;;;2.37;2.07;;;13.10;99.90;;;;;;5065663;28;20300;-64
2023/10/09 02:38:07;;;;;;;2.30;2.10;;;13.10;99.90;;;;;;5064936;28;20231;-64
2023/10/09 02:40:40;;;;;;;2.90;2.60;;;13.10;99.90;;;;;;5065437;28;20958;-64
2023/10/09 02:43:13;;;;;;;2.60;2.40;;;13.00;99.90;;;;;;5067140;28;20508;-64
2023/10/09 02:45:50;;;;;;;2.97;2.17;;;13.00;99.90;;;;;;5065897;28;20222;-65
2023/10/09 02:48:19;;;;;;;2.70;2.50;;;13.00;99.90;;;;;;5065647;28;20199;-65
2023/10/09 02:50:46;;;;;;;3.43;2.30;;;13.00;99.90;;;;;;5065632;28;20583;-65
2023/10/09 02:53:18;;;;;;;2.87;2.50;;;13.00;99.90;;;;;;5065461;28;20310;-65
2023/10/09 02:56:02;;;;;;;2.53;2.33;;;13.00;99.90;;;;;;5065544;28;20208;-64
2023/10/09 02:58:36;;;;;;;2.93;2.33;;;13.00;99.90;;;;;;5065442;28;20296;-65
2023/10/09 03:01:03;;;;;;;2.80;2.60;;;13.00;99.90;;;;;;5065021;28;20608;-65
2023/10/09 03:03:30;;;;;;;2.30;2.10;;;13.00;99.90;;;;;;5066297;28;20735;-65
2023/10/09 03:05:57;;;;;;;2.63;2.43;;;12.90;99.90;;;;;;5066261;28;20971;-65
2023/10/09 03:08:24;;;;;;;4.00;2.23;;;12.90;99.90;;;;;;5065494;28;20686;-65
2023/10/09 03:10:52;;;;;;;2.40;2.20;;;12.90;99.90;;;;;;5066079;28;20751;-65
2023/10/09 03:13:19;;;;;;;2.30;2.17;;;12.90;99.90;;;;;;5065682;28;20654;-65
2023/10/09 03:15:48;;;;;;;3.00;2.10;;;12.90;99.90;;;;;;5066009;28;20243;-66
2023/10/09 03:18:15;;;;;;;3.90;2.43;;;12.90;99.90;;;;;;5065877;28;20235;-65
2023/10/09 03:20:44;;;;;;;4.03;2.00;;;12.90;99.90;;;;;;5066625;28;20298;-65
2023/10/09 03:23:13;;;;;;;3.20;2.27;;;12.80;99.90;;;;;;5066449;28;20212;-65
2023/10/09 03:25:45;;;;;;;2.10;2.00;;;12.90;99.90;;;;;;5066979;28;20204;-66
2023/10/09 03:28:15;;;;;;;3.20;2.13;;;12.80;99.90;;;;;;5066656;28;20207;-65
2023/10/09 03:30:46;;;;;;;6.03;2.30;;;12.80;99.90;;;;;;5066572;28;20211;-65
2023/10/09 03:33:15;;;;;;;3.17;2.37;;;12.80;99.90;;;;;;5066217;28;20207;-65
2023/10/09 03:35:42;;;;;;;2.37;2.23;;;12.80;99.90;;;;;;5066868;28;20234;-65
2023/10/09 03:38:16;;;;;;;2.90;2.60;;;12.80;99.90;;;;;;5066375;28;20204;-65
2023/10/09 03:40:43;;;;;;;2.67;2.37;;;12.80;99.90;;;;;;5066367;28;20780;-65
2023/10/09 03:43:11;;;;;;;3.80;2.43;;;12.80;99.90;;;;;;5065860;28;20207;-65
2023/10/09 03:45:45;;;;;;;3.53;2.37;;;12.80;99.90;;;;;;5066347;28;20207;-65
2023/10/09 03:48:20;;;;;;;2.30;2.20;;;12.80;99.90;;;;;;5065511;28;20200;-65
2023/10/09 03:51:01;;;;;;;4.50;2.40;;;12.70;99.90;;;;;;5066447;28;20219;-65
2023/10/09 03:53:30;;;;;;;2.63;2.23;;;12.70;99.90;;;;;;5066170;28;20196;-65
2023/10/09 03:55:56;;;;;;;2.37;2.17;;;12.70;99.90;;;;;;5066119;28;20239;-65
2023/10/09 03:58:23;;;;;;;2.50;2.20;;;12.70;99.90;;;;;;5066034;28;20335;-65
2023/10/09 04:00:51;;;;;;;2.50;2.30;;;12.70;99.90;;;;;;5064584;28;20211;-65
2023/10/09 04:03:20;;;;;;;4.50;2.20;;;12.80;99.90;;;;;;5045729;28;20205;-65
2023/10/09 04:05:51;;;;;;;3.67;2.30;;;12.80;99.90;;;;;;5045870;28;20207;-65
2023/10/09 04:08:29;;;;;;;2.50;2.30;;;12.70;99.90;;;;;;5045533;28;20651;-65
2023/10/09 04:11:01;;;;;;;3.70;2.20;;;12.60;99.90;;;;;;5046009;28;20290;-65
2023/10/09 04:13:33;;;;;;;2.50;2.30;;;12.60;99.90;;;;;;5046141;28;20276;-65
2023/10/09 04:16:09;;;;;;;3.47;2.30;;;12.60;99.90;;;;;;5045453;28;20624;-66
2023/10/09 04:18:38;;;;;;;2.53;2.33;;;12.60;99.90;;;;;;5050046;28;20660;-65
2023/10/09 04:21:18;;;;;;;2.60;2.40;;;12.50;99.90;;;;;;5065840;28;20212;-65
2023/10/09 04:26:32;;;;;;;2.63;2.43;;;12.50;99.90;;;;;;5065348;28;20337;-65
2023/10/09 04:28:59;;;;;;;2.43;2.23;;;12.50;99.90;;;;;;5065108;28;20214;-65
2023/10/09 04:31:31;;;;;;;2.90;2.30;;;12.40;99.90;;;;;;5065239;28;20572;-65
2023/10/09 04:36:47;;;;;;;2.83;2.47;;;12.40;99.90;;;;;;5057549;28;20235;-65
2023/10/09 04:39:35;;;;;;;2.10;2.00;;;12.40;99.90;;;;;;5045032;28;20667;-66
2023/10/09 04:42:36;;;;;;;2.60;2.40;;;12.50;99.90;;;;;;5045289;28;20197;-65
2023/10/09 04:47:57;;;;;;;2.67;2.40;;;12.50;99.90;;;;;;5044964;28;20242;-65
2023/10/09 04:50:45;;;;;;;2.70;2.50;;;12.50;99.90;;;;;;5045350;28;20604;-65
2023/10/09 04:53:23;;;;;;;2.57;2.27;;;12.50;99.90;;;;;;5045146;28;20275;-66
2023/10/09 04:55:57;;;;;;;2.70;2.43;;;12.50;99.90;;;;;;5044687;28;20224;-65
2023/10/09 04:58:25;;;;;;;2.47;2.30;;;12.40;99.90;;;;;;5044873;28;20228;-66
2023/10/09 05:01:12;;;;;;;3.23;2.70;;;12.50;99.90;;;;;;5059593;28;20203;-65
2023/10/09 05:03:44;;;;;;;2.90;2.60;;;12.50;99.90;;;;;;5081610;28;20199;-65
2023/10/09 05:06:42;;;;;;;2.97;2.77;;;12.50;99.90;;;;;;5064460;28;20717;-65
2023/10/09 05:09:13;;;;;;;3.10;2.80;;;12.50;99.90;;;;;;5064187;28;20411;-65
2023/10/09 05:14:38;;;;;;;3.20;2.90;;;12.50;99.90;;;;;;5062311;28;20294;-65
2023/10/09 05:17:15;;;;;;;4.67;2.90;;;12.50;99.90;;;;;;5064390;28;20233;-65
2023/10/09 05:19:54;;;;;;;3.10;2.80;;;12.50;99.90;;;;;;5064572;28;20211;-66
2023/10/09 05:22:29;;;;;;;5.23;2.77;;;12.50;99.90;;;;;;5065209;28;20279;-66
2023/10/09 05:25:00;;;;;;;2.90;2.57;;;12.40;99.90;;;;;;5064745;28;20198;-66
2023/10/09 05:30:25;;;;;;;2.73;2.43;;;12.40;99.90;;;;;;5064226;28;20207;-66
2023/10/09 05:32:55;;;;;;;2.83;2.60;;;12.30;99.90;;;;;;5052288;28;20203;-66
2023/10/09 05:35:29;;;;;;;3.53;2.57;;;12.30;99.90;;;;;;5064367;28;20756;-66
2023/10/09 05:38:01;;;;;;;3.33;2.40;;;12.30;99.90;;;;;;5064598;28;20202;-66
2023/10/09 05:40:31;;;;;;;2.40;2.20;;;12.40;99.90;;;;;;5064469;28;20679;-66
2023/10/09 05:42:59;;;;;;;2.80;2.50;;;12.40;99.90;;;;;;5064927;28;20213;-66
2023/10/09 05:51:12;;;;;;;2.73;2.20;;;12.30;99.90;;;;;;5063398;28;20240;-65
2023/10/09 06:04:49;;;;;;;2.43;2.23;;;12.30;99.90;;;;;;5044093;28;20631;-66
2023/10/09 06:07:23;;;;;;;2.93;2.47;;;12.30;99.90;;;;;;5044302;28;20565;-66
2023/10/09 06:09:52;;;;;;;3.27;2.30;;;12.30;99.90;;;;;;5043929;28;20647;-66
2023/10/09 06:15:31;;;;;;;3.30;2.30;;;12.30;99.90;;;;;;5055569;28;20215;-66
2023/10/09 06:18:25;;;;;;;3.83;2.40;;;12.40;99.90;;;;;;5067332;28;20195;-66
2023/10/09 06:23:50;;;;;;;5.27;2.30;;;12.40;99.90;;;;;;5067013;28;20207;-66
2023/10/09 06:26:23;;;;;;;4.63;3.00;;;12.30;99.90;;;;;;5057951;28;20202;-66
2023/10/09 06:29:13;;;;;;;2.23;2.03;;;12.30;99.90;;;;;;5051851;28;20239;-66
2023/10/09 06:34:32;;;;;;;2.77;2.40;;;12.30;99.90;;;;;;5039895;28;20223;-66
2023/10/09 06:37:03;;;;;;;3.13;2.50;;;12.30;99.90;;;;;;5047108;28;20690;-66
2023/10/09 06:42:30;;;;;;;2.60;2.40;;;12.30;99.90;;;;;;5047280;28;20330;-66
2023/10/09 06:45:05;;;;;;;3.50;2.50;;;12.30;99.90;;;;;;5059845;28;20203;-66
2023/10/09 06:47:40;;;;;;;3.13;2.50;;;12.30;99.90;;;;;;5067093;28;20375;-66
2023/10/09 06:50:25;;;;;;;3.97;2.60;;;12.30;99.90;;;;;;5067025;28;20710;-66
2023/10/09 06:53:18;;;;;;;3.10;2.40;;;12.30;99.90;;;;;;5067422;28;20195;-66
2023/10/09 06:55:48;;;;;;;2.70;2.50;;;12.30;99.90;;;;;;5066897;28;20231;-66
2023/10/09 06:58:16;;;;;;;2.90;2.43;;;12.40;99.90;;;;;;5067200;28;20200;-66
2023/10/09 07:01:00;;;;;;;3.20;2.87;;;12.40;99.90;;;;;;5067078;28;20216;-66
2023/10/09 07:03:32;;;;;;;3.33;3.00;;;12.50;99.90;;;;;;5046938;28;20224;-66
2023/10/09 07:06:09;;;;;;;2.80;2.60;;;12.50;99.90;;;;;;5046646;28;20208;-66
2023/10/09 07:08:37;;;;;;;4.07;3.00;;;12.60;99.90;;;;;;5047075;28;20241;-66
2023/10/09 07:13:52;;;;;;;2.90;2.70;;;12.60;99.90;;;;;;5066485;28;20241;-66
2023/10/09 07:16:28;;;;;;;4.43;2.30;;;12.60;99.90;;;;;;5067025;28;20230;-66
2023/10/09 07:19:09;;;;;;;3.17;2.87;;;12.70;99.90;;;;;;5056908;28;20207;-66
2023/10/09 07:21:39;;;;;;;4.80;2.70;;;12.70;99.90;;;;;;5046498;28;20196;-66
2023/10/09 07:24:17;;;;;;;3.80;2.90;;;12.80;99.90;;;;;;5046359;28;20207;-66
2023/10/09 07:26:52;;;;;;;3.67;3.00;;;12.70;99.90;;;;;;5049779;28;20218;-66
2023/10/09 07:29:21;;;;;;;3.43;2.67;;;12.70;99.90;;;;;;5046617;28;20291;-66
2023/10/09 07:31:57;;;;;;;3.70;3.13;;;12.80;99.90;;;;;;5045904;28;20219;-66
2023/10/09 07:34:52;;;;;;;3.17;2.53;;;12.80;99.90;;;;;;5046312;28;20204;-66
2023/10/09 07:37:22;;;;;;;5.67;2.97;;;12.80;99.90;;;;;;5045731;28;20777;-66
2023/10/09 07:39:57;;;;;;;3.47;3.17;;;12.90;99.90;;;;;;5047029;28;20223;-66
2023/10/09 07:42:43;;;;;;;4.50;3.07;;;12.90;99.90;;;;;;5066020;28;20210;-66
2023/10/09 07:45:54;;;;;;;3.63;3.10;;;13.00;99.90;;;;;;5065482;28;20235;-66
2023/10/09 07:48:04;;;;;;;3.20;3.00;;;13.00;99.90;;;;;;5065276;28;20674;-66
2023/10/09 07:50:40;;;;;;;4.23;3.17;;;13.00;99.90;;;;;;5066043;28;20202;-66
2023/10/09 07:53:18;;;;;;;3.30;3.00;;;13.00;99.90;;;;;;5065465;28;20195;-66
2023/10/09 07:55:54;;;;;;;3.60;3.30;;;13.00;99.90;;;;;;5065538;28;21109;-66
2023/10/09 07:58:24;;;;;;;3.40;3.10;;;13.00;99.90;;;;;;5066077;28;20200;-66
2023/10/09 08:03:35;;;;;;;4.13;3.03;;;13.00;99.90;;;;;;5065398;28;20598;-66
2023/10/09 08:06:37;;;;;;;3.40;3.07;;;13.00;99.90;;;;;;5065953;28;20215;-66
2023/10/09 08:17:11;;;;;;;4.00;3.33;;;12.90;99.90;;;;;;5064918;28;20235;-66
2023/10/09 08:19:53;;;;;;;3.83;3.10;;;12.90;99.90;;;;;;5065774;28;20191;-66
2023/10/09 08:25:08;;;;;;;3.97;3.07;;;12.90;99.90;;;;;;5065339;28;20257;-65
2023/10/09 08:27:54;;;;;;;2.90;2.70;;;12.90;99.90;;;;;;5065327;28;20654;-66
2023/10/09 08:30:40;;;;;;;3.87;3.57;;;12.90;99.90;;;;;;5065396;28;20256;-66
2023/10/09 08:35:55;;;;;;;3.53;3.20;;;12.90;99.90;;;;;;5044536;28;20214;-66
2023/10/09 08:38:24;;;;;;;6.93;3.23;;;12.80;99.90;;;;;;5045733;28;20542;-66
2023/10/09 08:40:58;;;;;;;4.47;3.07;;;12.90;99.90;;;;;;5044967;28;20242;-66
2023/10/09 08:43:25;;;;;;;5.87;3.43;;;12.90;99.90;;;;;;5045229;28;20895;-66
2023/10/09 08:46:00;;;;;;;3.80;3.17;;;12.90;99.90;;;;;;5045104;28;20228;-65
2023/10/09 08:48:28;;;;;;;5.50;3.33;;;12.90;99.90;;;;;;5046504;28;20188;-66
2023/10/09 08:50:57;;;;;;;3.73;3.17;;;12.80;99.90;;;;;;5064996;28;20656;-66
2023/10/09 08:53:27;;;;;;;4.53;3.17;;;12.90;99.90;;;;;;5064815;28;20669;-66
2023/10/09 08:55:55;;;;;;;4.13;3.20;;;12.90;99.90;;;;;;5064534;28;20216;-66
2023/10/09 08:58:24;;;;;;;3.47;2.80;;;12.90;99.90;;;;;;5065182;28;20330;-66
2023/10/09 09:00:55;;;;;;;3.10;2.90;;;12.90;99.90;;;;;;5064928;28;20203;-66
2023/10/09 09:03:24;;;;;;;3.20;3.00;;;12.90;99.90;;;;;;5064888;28;20199;-66
2023/10/09 09:06:01;;;;;;;4.03;2.67;;;12.90;99.90;;;;;;5064831;28;20234;-66
2023/10/09 09:08:30;;;;;;;3.50;3.20;;;12.90;99.90;;;;;;5064399;28;20242;-66
2023/10/09 09:11:11;;;;;;;3.63;2.97;;;12.90;99.90;;;;;;5064774;28;20235;-66
2023/10/09 09:13:41;;;;;;;3.80;2.83;;;12.90;99.90;;;;;;5064865;28;20195;-66
2023/10/09 09:16:18;;;;;;;2.87;2.67;;;13.00;99.90;;;;;;5064414;28;20239;-66
2023/10/09 09:19:00;;;;;;;3.60;2.57;;;13.00;99.90;;;;;;5064239;28;20221;-66
2023/10/09 09:21:28;;;;;;;4.80;3.03;;;13.00;99.90;;;;;;5064848;28;20940;-66
2023/10/09 09:23:58;;;;;;;3.70;2.73;;;13.00;99.90;;;;;;5064563;28;20318;-66
2023/10/09 09:26:46;;;;;;;3.90;2.93;;;13.10;99.90;;;;;;5065173;28;20215;-66
2023/10/09 09:29:17;;;;;;;4.37;3.20;;;13.10;99.90;;;;;;5064468;28;20206;-66
2023/10/09 09:31:57;;;;;;;3.83;3.50;;;13.10;99.90;;;;;;5073475;28;20637;-66
2023/10/09 09:34:28;;;;;;;5.87;4.77;;;13.10;99.90;;;;;;5084570;28;20222;-66
2023/10/09 09:36:58;;;;;;;3.60;3.30;;;13.10;99.90;;;;;;5075972;28;20258;-66
2023/10/09 09:39:30;;;;;;;3.27;2.97;;;13.10;99.90;;;;;;5064504;28;20290;-66
2023/10/09 09:42:03;;;;;;;3.00;2.80;;;13.20;99.90;;;;;;5064327;28;20231;-66
2023/10/09 09:44:33;;;;;;;3.33;3.03;;;13.20;99.90;;;;;;5064641;28;20198;-66
2023/10/09 09:47:03;;;;;;;3.37;3.07;;;13.20;99.90;;;;;;5067458;28;20286;-66
2023/10/09 09:49:32;;;;;;;2.97;2.73;;;13.20;99.90;;;;;;5068657;28;20192;-66
2023/10/09 09:52:09;;;;;;;4.10;2.80;;;13.20;99.90;;;;;;5068420;28;20665;-66
2023/10/09 09:54:37;;;;;;;3.87;2.97;;;13.20;99.90;;;;;;5068185;28;20291;-66
2023/10/09 09:57:08;;;;;;;3.43;2.90;;;13.20;99.90;;;;;;5068342;28;20288;-66
2023/10/09 09:59:51;;;;;;;4.80;2.63;;;13.20;99.90;;;;;;5066003;28;20192;-66
2023/10/09 10:02:25;;;;;;;3.47;2.90;;;13.20;99.90;;;;;;5061560;28;20218;-66
2023/10/09 10:04:56;;;;;;;4.97;2.90;;;13.20;99.90;;;;;;5048242;28;20541;-66
2023/10/09 10:07:29;;;;;;;5.80;3.07;;;13.20;99.90;;;;;;5055412;28;20199;-66
2023/10/09 10:09:57;;;;;;;2.90;2.70;;;13.20;99.90;;;;;;5067646;28;20708;-65
2023/10/09 10:13:00;;;;;;;2.80;2.50;;;13.20;99.90;;;;;;5068188;28;20661;-66
2023/10/09 10:16:00;;;;;;;3.13;2.83;;;13.20;99.90;;;;;;5067921;28;20302;-66
2023/10/09 10:18:32;;;;;;;3.50;2.80;;;13.20;99.90;;;;;;5067321;28;20227;-66
2023/10/09 10:21:16;;;;;;;3.10;2.80;;;13.10;99.90;;;;;;5067524;28;20820;-66
2023/10/09 10:23:47;;;;;;;4.70;2.80;;;13.20;99.90;;;;;;5067533;28;20198;-66
2023/10/09 10:26:26;;;;;;;3.27;3.07;;;13.20;99.90;;;;;;5058103;28;20266;-66
2023/10/09 10:29:22;;;;;;;3.20;2.90;;;13.20;99.90;;;;;;5047810;28;20273;-66
2023/10/09 10:31:57;;;;;;;3.40;3.10;;;13.20;99.90;;;;;;5056902;28;20269;-66
2023/10/09 10:34:25;;;;;;;3.43;3.03;;;13.20;99.90;;;;;;5067368;28;20207;-66
2023/10/09 10:36:58;;;;;;;5.10;3.03;;;13.20;99.90;;;;;;5067434;28;20346;-66
2023/10/09 10:42:09;;;;;;;3.60;3.30;;;13.30;99.90;;;;;;5066745;28;20806;-66
2023/10/09 10:44:41;;;;;;;3.57;3.27;;;13.20;99.90;;;;;;5067086;28;20208;-66
2023/10/09 10:47:22;;;;;;;6.63;3.20;;;13.30;99.90;;;;;;5067429;28;20196;-66
2023/10/09 10:49:50;;;;;;;3.80;3.50;;;13.30;99.90;;;;;;5067314;28;20195;-66
2023/10/09 10:52:42;;;;;;;4.17;3.73;;;13.30;99.90;;;;;;5067354;28;20389;-66
2023/10/09 10:55:18;;;;;;;3.57;3.27;;;13.40;99.90;;;;;;5067648;28;20188;-66
2023/10/09 10:57:55;;;;;;;3.70;3.40;;;13.40;99.90;;;;;;5066720;28;20226;-66
2023/10/09 11:05:51;;;;;;;4.03;3.60;;;13.30;99.90;;;;;;5066286;28;20195;-66
2023/10/09 11:08:22;;;;;;;3.93;3.57;;;13.30;99.90;;;;;;5066939;28;20238;-66
2023/10/09 11:10:53;;;;;;;3.80;3.50;;;13.40;99.90;;;;;;5066685;28;20215;-66
2023/10/09 11:13:35;;;;;;;3.70;3.50;;;13.40;99.90;;;;;;5067200;28;20226;-66
2023/10/09 11:16:28;;;;;;;3.83;3.47;;;13.40;99.90;;;;;;5066851;28;20202;-66
2023/10/09 11:18:57;;;;;;;3.90;3.70;;;13.50;99.90;;;;;;5066647;28;20214;-66
2023/10/09 11:21:30;;;;;;;3.87;3.60;;;13.50;99.90;;;;;;5066389;28;20269;-66
2023/10/09 11:23:58;;;;;;;4.67;4.37;;;13.50;99.90;;;;;;5066575;28;20197;-66
2023/10/09 11:26:28;;;;;;;4.20;3.87;;;13.50;99.90;;;;;;5066615;28;20752;-66
2023/10/09 11:29:14;;;;;;;4.37;4.07;;;13.50;99.90;;;;;;5066817;28;20222;-66
2023/10/09 11:31:45;;;;;;;5.00;4.30;;;13.60;99.90;;;;;;5058402;28;20207;-66
2023/10/09 11:34:28;;;;;;;5.43;3.77;;;13.60;99.90;;;;;;5063371;28;20199;-66
2023/10/09 11:36:58;;;;;;;3.83;3.53;;;13.60;99.90;;;;;;5066582;28;20227;-66
2023/10/09 11:39:31;;;;;;;4.73;4.10;;;13.70;99.90;;;;;;5066463;28;20214;-66
2023/10/09 11:42:07;;;;;;;4.80;4.40;;;13.60;99.90;;;;;;5066398;28;20734;-66
2023/10/09 11:44:40;;;;;;;4.80;4.50;;;13.60;99.90;;;;;;5066278;28;20233;-65
2023/10/09 11:47:32;;;;;;;4.67;3.97;;;13.60;99.90;;;;;;5066420;28;20196;-66
2023/10/09 11:50:12;;;;;;;5.27;4.87;;;13.50;99.90;;;;;;5066121;28;20195;-66
2023/10/09 11:55:41;;;;;;;4.93;4.43;;;13.80;99.90;;;;;;5065810;28;20751;-66
2023/10/09 11:58:09;;;;;;;4.47;4.10;;;13.80;99.90;;;;;;5065885;28;20342;-66
2023/10/09 12:00:47;;;;;;;6.63;4.00;;;13.90;99.90;;;;;;5066031;28;20294;-66
2023/10/09 12:03:14;;;;;;;4.37;3.83;;;14.00;99.90;;;;;;5045997;28;20575;-66
2023/10/09 12:05:44;;;;;;;4.87;4.27;;;14.00;99.90;;;;;;5046082;28;20236;-66
2023/10/09 12:08:15;;;;;;;6.07;4.47;;;14.00;99.90;;;;;;5064152;28;20633;-66
2023/10/09 12:10:42;;;;;;;4.63;4.33;;;13.90;99.90;;;;;;5065173;28;20219;-66
2023/10/09 12:13:10;;;;;;;4.73;4.23;;;13.80;99.90;;;;;;5065587;28;20223;-66
2023/10/09 12:15:40;;;;;;;4.67;4.27;;;13.70;99.90;;;;;;5065512;28;20269;-66
2023/10/09 12:18:14;;;;;;;4.37;4.03;;;13.70;99.90;;;;;;5065666;28;20239;-66
2023/10/09 12:20:41;;;;;;;4.53;4.20;;;13.60;99.90;;;;;;5065430;28;20195;-66
2023/10/09 12:23:14;;;;;;;4.23;3.50;;;13.60;99.90;;;;;;5065472;28;20295;-66
2023/10/09 12:25:44;;;;;;;4.43;4.03;;;13.60;99.90;;;;;;5065127;28;20291;-66
2023/10/09 12:28:13;;;;;;;7.87;4.40;;;13.60;99.90;;;;;;5065629;28;20218;-66
2023/10/09 12:30:41;;;;;;;6.23;4.23;;;13.60;99.90;;;;;;5065057;28;20207;-66
2023/10/09 12:33:09;;;;;;;3.83;3.43;;;13.60;99.90;;;;;;5045787;28;20298;-66
2023/10/09 12:35:41;;;;;;;4.03;3.13;;;13.60;99.90;;;;;;5064645;28;20613;-66
2023/10/09 12:38:12;;;;;;;3.77;3.43;;;13.60;99.90;;;;;;5065338;28;20642;-66
2023/10/09 12:40:40;;;;;;;3.37;3.17;;;13.70;99.90;;;;;;5065449;28;20565;-66
2023/10/09 12:43:15;;;;;;;3.20;3.00;;;13.70;99.90;;;;;;5065199;28;20214;-66
2023/10/09 12:45:44;;;;;;;3.50;3.17;;;13.70;99.90;;;;;;5065178;28;20223;-66
2023/10/09 12:48:12;;;;;;;4.00;3.63;;;13.70;99.90;;;;;;5064039;28;20211;-66
2023/10/09 12:50:44;;;;;;;3.70;3.40;;;13.70;99.90;;;;;;5045108;28;20723;-66
2023/10/09 12:53:12;;;;;;;4.00;3.70;;;13.70;99.90;;;;;;5061638;28;20206;-66
2023/10/09 12:55:40;;;;;;;4.50;4.10;;;13.70;99.90;;;;;;5064947;28;20207;-66
2023/10/09 12:58:09;;;;;;;4.57;4.13;;;13.70;99.90;;;;;;5064873;28;20242;-66
2023/10/09 13:00:39;;;;;;;3.93;3.63;;;13.80;99.90;;;;;;5064967;28;20298;-66
2023/10/09 13:03:16;;;;;;;4.37;3.97;;;13.90;99.90;;;;;;5052448;28;20217;-66
2023/10/09 13:05:54;;;;;;;3.97;3.67;;;13.90;99.90;;;;;;5065185;28;20207;-66
2023/10/09 13:08:21;;;;;;;3.93;3.50;;;13.90;99.90;;;;;;5064817;28;20242;-66
2023/10/09 13:10:58;;;;;;;4.07;3.77;;;13.90;99.90;;;;;;5064923;28;20209;-66
2023/10/09 13:13:36;;;;;;;4.07;3.73;;;13.70;99.90;;;;;;5063978;28;20195;-66
2023/10/09 13:16:05;;;;;;;3.80;3.50;;;13.70;99.90;;;;;;5059300;28;20207;-66
2023/10/09 13:18:34;;;;;;;5.63;3.77;;;13.70;99.90;;;;;;5062272;28;20235;-66
2023/10/09 13:21:03;;;;;;;4.07;3.67;;;13.70;99.90;;;;;;5062749;28;20205;-66
2023/10/09 13:23:38;;;;;;;4.40;4.13;;;13.60;99.90;;;;;;5062890;28;20211;-66
2023/10/09 13:26:17;;;;;;;4.70;4.30;;;13.60;99.90;;;;;;5066013;28;20191;-66
2023/10/09 13:28:46;;;;;;;4.93;4.47;;;13.50;99.90;;;;;;5062749;28;20200;-67
2023/10/09 13:31:14;;;;;;;4.70;4.30;;;13.50;99.90;;;;;;5066941;28;20687;-66
2023/10/09 13:33:43;;;;;;;4.00;3.70;;;13.50;99.90;;;;;;5079118;28;20227;-66
2023/10/09 13:36:17;;;;;;;4.10;3.70;;;13.50;99.90;;;;;;5062864;28;20238;-67
2023/10/09 13:38:44;;;;;;;4.00;3.70;;;13.50;99.90;;;;;;5063231;28;20227;-66
2023/10/09 13:41:17;;;;;;;4.30;4.00;;;13.60;99.90;;;;;;5063126;28;20298;-66
2023/10/09 13:43:45;;;;;;;4.63;4.20;;;13.60;99.90;;;;;;5062873;28;20738;-64
2023/10/09 13:46:13;;;;;;;4.43;4.03;;;13.60;99.90;;;;;;5062747;28;20238;-64
2023/10/09 13:48:43;;;;;;;5.63;4.40;;;13.60;99.90;;;;;;5062800;28;20199;-65
2023/10/09 13:51:13;;;;;;;4.87;4.30;;;13.50;99.90;;;;;;5062582;28;20857;-65
2023/10/09 13:53:45;;;;;;;4.77;4.37;;;13.50;99.90;;;;;;5063137;28;20253;-65
2023/10/09 13:56:18;;;;;;;4.83;4.43;;;13.50;99.90;;;;;;5063039;28;20191;-65
2023/10/09 13:58:49;;;;;;;5.40;4.97;;;13.50;99.90;;;;;;5062965;28;20219;-65
2023/10/09 14:01:26;;;;;;;5.63;5.20;;;13.50;99.90;;;;;;5058191;28;20295;-65
2023/10/09 14:03:56;;;;;;;5.90;5.50;;;13.50;99.90;;;;;;5042763;28;20623;-65
2023/10/09 14:06:30;;;;;;;6.00;5.50;;;13.40;99.90;;;;;;5054956;28;20294;-65
2023/10/09 14:08:58;;;;;;;6.50;5.73;;;13.40;99.90;;;;;;5062993;28;20235;-65
2023/10/09 14:11:25;;;;;;;6.77;6.10;;;13.40;99.90;;;;;;5063250;28;20574;-64
2023/10/09 14:13:53;;;;;;;6.63;6.13;;;13.30;99.90;;;;;;5063033;28;20288;-64
2023/10/09 14:16:27;;;;;;;6.20;5.80;;;13.30;99.90;;;;;;5076433;28;20213;-64
2023/10/09 14:18:57;;;;;;;6.67;5.97;;;13.30;99.90;;;;;;5082599;28;20231;-66
2023/10/09 14:21:26;;;;;;;6.20;5.60;;;13.30;99.90;;;;;;5064324;28;20279;-65
2023/10/09 14:23:56;;;;;;;5.90;5.40;;;13.30;99.90;;;;;;5062297;28;20215;-65
2023/10/09 14:26:25;;;;;;;6.20;5.70;;;13.30;99.90;;;;;;5065917;28;20821;-65
2023/10/09 14:28:52;;;;;;;5.67;5.17;;;13.30;99.90;;;;;;5062488;28;20212;-65
2023/10/09 14:31:26;;;;;;;5.93;5.43;;;13.30;99.90;;;;;;5057449;28;20852;-65